Time;durP1;ratioP1;P1;durP2;ratioP2;P2;SDS_P1;SDS_P2;PMS_P1;PMS_P2;Temp;Humidity;BMP_temperature;BMP_pressure;BME280_temperature;BME280_humidity;BME280_pressure;Samples;Min_cycle;Max_cycle;Signal;HPM_P1;HPM_P2
2021/04/10 00:00:20;;;;;;;1.42;0.90;;;22.70;28.60;;;;;;5053943;28;20401;-57
2021/04/10 00:02:56;;;;;;;1.90;0.85;;;22.70;28.60;;;;;;5053994;28;20386;-57
2021/04/10 00:05:26;;;;;;;1.42;0.80;;;22.70;28.60;;;;;;5054037;28;20468;-56
2021/04/10 00:07:52;;;;;;;1.48;0.80;;;22.70;28.60;;;;;;5053292;28;20392;-56
2021/04/10 00:10:19;;;;;;;1.40;0.80;;;22.70;28.50;;;;;;5053927;28;20382;-56
2021/04/10 00:12:45;;;;;;;1.30;0.80;;;22.60;28.50;;;;;;5053801;28;20425;-56
2021/04/10 00:15:14;;;;;;;1.33;0.73;;;22.60;28.50;;;;;;5053666;28;20441;-57
2021/04/10 00:17:40;;;;;;;1.80;0.88;;;22.60;28.50;;;;;;5053807;28;20382;-57
2021/04/10 00:20:18;;;;;;;1.57;0.90;;;22.60;28.40;;;;;;5053130;28;20489;-56
2021/04/10 00:22:44;;;;;;;1.75;0.85;;;22.60;28.40;;;;;;5053503;28;20377;-57
2021/04/10 00:25:11;;;;;;;1.30;0.68;;;22.60;28.40;;;;;;5053655;28;20408;-57
2021/04/10 00:27:38;;;;;;;1.40;0.80;;;22.60;28.40;;;;;;5052278;28;20405;-56
2021/04/10 00:30:05;;;;;;;1.53;0.90;;;22.60;28.40;;;;;;5052999;28;20520;-56
2021/04/10 00:32:31;;;;;;;1.70;0.90;;;22.60;28.40;;;;;;5053560;28;20389;-56
2021/04/10 00:34:56;;;;;;;2.03;0.80;;;22.60;28.40;;;;;;5053328;28;20432;-56
2021/04/10 00:37:22;;;;;;;1.92;0.82;;;22.60;28.40;;;;;;5053561;28;20381;-57
2021/04/10 00:39:47;;;;;;;1.50;0.80;;;22.60;28.40;;;;;;5053107;28;20435;-57
2021/04/10 00:42:13;;;;;;;1.40;0.80;;;22.60;28.40;;;;;;5052824;28;20788;-58
2021/04/10 00:44:39;;;;;;;1.33;0.70;;;22.60;28.40;;;;;;5053184;28;20393;-57
2021/04/10 00:47:05;;;;;;;1.40;0.80;;;22.60;28.40;;;;;;5053137;28;20424;-57
2021/04/10 00:49:30;;;;;;;1.83;0.90;;;22.50;28.40;;;;;;5052310;28;20515;-57
2021/04/10 00:51:56;;;;;;;1.58;0.80;;;22.50;28.40;;;;;;5052557;28;20463;-56
2021/04/10 00:54:22;;;;;;;1.50;0.80;;;22.50;28.40;;;;;;5053074;28;20428;-57
2021/04/10 00:56:48;;;;;;;1.30;0.80;;;22.50;28.40;;;;;;5052984;28;20385;-57
2021/04/10 00:59:14;;;;;;;1.40;0.85;;;22.50;28.40;;;;;;5052996;28;20841;-56
2021/04/10 01:01:39;;;;;;;1.70;0.90;;;22.50;28.40;;;;;;5052963;28;20794;-57
2021/04/10 01:04:06;;;;;;;1.70;0.90;;;22.50;28.40;;;;;;5052346;28;20389;-57
2021/04/10 01:06:32;;;;;;;1.48;0.75;;;22.50;28.30;;;;;;5052947;28;20412;-56
2021/04/10 01:08:58;;;;;;;1.58;0.90;;;22.50;28.40;;;;;;5052240;28;20496;-57
2021/04/10 01:11:27;;;;;;;1.90;0.77;;;22.50;28.40;;;;;;5052993;28;20408;-57
2021/04/10 01:13:56;;;;;;;1.55;0.90;;;22.50;28.40;;;;;;5052218;28;20439;-56
2021/04/10 01:16:29;;;;;;;1.50;0.90;;;22.50;28.30;;;;;;5052767;28;20390;-57
2021/04/10 01:19:03;;;;;;;1.55;0.70;;;22.40;28.30;;;;;;5052533;28;20428;-57
2021/04/10 01:21:40;;;;;;;1.90;0.85;;;22.50;28.40;;;;;;5052633;28;20411;-57
2021/04/10 01:24:43;;;;;;;1.37;0.80;;;22.40;28.30;;;;;;5051974;28;20397;-57
2021/04/10 01:27:38;;;;;;;1.60;0.80;;;22.40;28.30;;;;;;5051936;28;20400;-57
2021/04/10 01:30:10;;;;;;;2.10;0.80;;;22.40;28.30;;;;;;5051455;28;20875;-57
2021/04/10 01:32:41;;;;;;;1.50;0.80;;;22.40;28.30;;;;;;5052339;28;20385;-57
2021/04/10 01:35:11;;;;;;;1.50;0.80;;;22.40;28.80;;;;;;5052234;28;20555;-57
2021/04/10 01:37:43;;;;;;;1.35;0.80;;;22.40;28.30;;;;;;5052040;28;20477;-57
2021/04/10 01:40:11;;;;;;;1.40;0.80;;;22.40;28.30;;;;;;5051775;28;20389;-58
2021/04/10 01:42:40;;;;;;;2.30;0.90;;;22.40;28.30;;;;;;5051795;28;20385;-57
2021/04/10 01:45:07;;;;;;;1.25;0.80;;;22.40;28.30;;;;;;5051888;28;20406;-56
2021/04/10 01:47:35;;;;;;;1.50;0.83;;;22.40;28.30;;;;;;5052088;28;20865;-56
2021/04/10 01:50:03;;;;;;;1.60;0.77;;;22.40;28.30;;;;;;5051487;28;20388;-57
2021/04/10 01:52:29;;;;;;;1.45;0.80;;;22.40;28.30;;;;;;5052099;28;20386;-57
2021/04/10 01:54:56;;;;;;;1.55;0.80;;;22.40;28.30;;;;;;5051745;28;20885;-57
2021/04/10 01:57:22;;;;;;;1.65;0.80;;;22.40;28.30;;;;;;5051881;28;20464;-56
2021/04/10 01:59:49;;;;;;;1.33;0.73;;;22.30;28.20;;;;;;5051516;28;20389;-56
2021/04/10 02:02:15;;;;;;;1.60;0.80;;;22.30;28.20;;;;;;5051569;28;20381;-56
2021/04/10 02:04:45;;;;;;;1.55;0.70;;;22.30;28.20;;;;;;5051833;28;20444;-56
2021/04/10 02:07:12;;;;;;;1.60;0.90;;;22.30;28.20;;;;;;5051706;28;20398;-56
2021/04/10 02:09:42;;;;;;;1.30;0.70;;;22.30;28.20;;;;;;5050576;28;20901;-57
2021/04/10 02:12:08;;;;;;;1.23;0.80;;;22.30;28.20;;;;;;5051064;28;20385;-56
2021/04/10 02:14:35;;;;;;;1.20;0.90;;;22.30;28.20;;;;;;5050326;28;20413;-57
2021/04/10 02:17:01;;;;;;;1.70;0.90;;;22.30;28.20;;;;;;5051550;28;20743;-56
2021/04/10 02:19:27;;;;;;;1.40;0.80;;;22.30;28.20;;;;;;5051173;28;20484;-57
2021/04/10 02:21:52;;;;;;;1.20;0.80;;;22.30;28.20;;;;;;5050930;28;20386;-56
2021/04/10 02:24:18;;;;;;;1.20;0.70;;;22.30;28.20;;;;;;5051281;28;20438;-57
2021/04/10 02:26:44;;;;;;;1.55;0.80;;;22.30;28.20;;;;;;5051395;28;20393;-57
2021/04/10 02:29:10;;;;;;;1.23;0.77;;;22.30;28.20;;;;;;5051393;28;20398;-57
2021/04/10 02:31:48;;;;;;;1.73;0.88;;;22.30;28.20;;;;;;5051421;28;20390;-57
2021/04/10 02:34:21;;;;;;;1.38;0.65;;;22.20;28.20;;;;;;5051112;28;20820;-57
2021/04/10 02:36:52;;;;;;;1.20;0.70;;;22.20;28.20;;;;;;5051381;28;20984;-56
2021/04/10 02:39:19;;;;;;;1.70;0.80;;;22.20;28.20;;;;;;5051463;28;20398;-57
2021/04/10 02:41:48;;;;;;;1.23;0.63;;;22.20;28.10;;;;;;5050968;28;20488;-57
2021/04/10 02:44:16;;;;;;;1.33;0.80;;;22.20;28.10;;;;;;5050391;28;20394;-57
2021/04/10 02:46:47;;;;;;;1.40;0.87;;;22.20;28.10;;;;;;5050992;28;20409;-57
2021/04/10 02:49:36;;;;;;;1.92;0.90;;;22.20;28.10;;;;;;5051056;28;20404;-56
2021/04/10 02:52:04;;;;;;;1.48;0.85;;;22.20;28.10;;;;;;5049736;28;20417;-56
2021/04/10 02:54:34;;;;;;;1.37;0.90;;;22.20;28.20;;;;;;5051270;28;20909;-56
2021/04/10 02:57:06;;;;;;;1.50;0.80;;;22.20;28.20;;;;;;5051227;28;20380;-57
2021/04/10 02:59:34;;;;;;;1.45;0.80;;;22.20;28.20;;;;;;5051267;28;20381;-56
2021/04/10 03:02:01;;;;;;;1.38;0.80;;;22.20;28.20;;;;;;5050650;28;20377;-56
2021/04/10 03:04:27;;;;;;;1.50;0.82;;;22.10;28.20;;;;;;5051192;28;20393;-56
2021/04/10 03:06:54;;;;;;;1.67;0.80;;;22.20;28.30;;;;;;5050945;28;20381;-57
2021/04/10 03:09:19;;;;;;;1.52;0.80;;;22.20;28.20;;;;;;5051053;28;20397;-56
2021/04/10 03:11:46;;;;;;;1.40;0.80;;;22.20;28.20;;;;;;5050993;28;20385;-56
2021/04/10 03:14:12;;;;;;;1.42;0.80;;;22.10;28.20;;;;;;5050513;28;20428;-56
2021/04/10 03:16:38;;;;;;;1.98;0.80;;;22.20;28.30;;;;;;5051027;28;20384;-56
2021/04/10 03:19:08;;;;;;;1.58;0.80;;;22.10;28.20;;;;;;5050927;28;20472;-56
2021/04/10 03:21:34;;;;;;;1.25;0.70;;;22.10;28.20;;;;;;5050990;28;20382;-56
2021/04/10 03:24:00;;;;;;;1.20;0.70;;;22.10;28.20;;;;;;5050530;28;20393;-56
2021/04/10 03:26:26;;;;;;;1.83;0.90;;;22.10;28.20;;;;;;5050860;28;20389;-56
2021/04/10 03:28:54;;;;;;;1.25;0.60;;;22.10;28.20;;;;;;5050789;28;20394;-56
2021/04/10 03:31:21;;;;;;;1.67;0.70;;;22.20;28.20;;;;;;5051665;28;20415;-56
2021/04/10 03:33:47;;;;;;;1.23;0.80;;;22.10;28.20;;;;;;5054519;28;20413;-56
2021/04/10 03:36:13;;;;;;;1.30;0.80;;;22.10;28.20;;;;;;5054092;28;20404;-56
2021/04/10 03:38:40;;;;;;;1.40;0.70;;;22.10;28.20;;;;;;5054607;28;20408;-57
2021/04/10 03:41:07;;;;;;;1.65;0.80;;;22.10;28.20;;;;;;5054489;28;20388;-57
2021/04/10 03:43:33;;;;;;;1.55;0.80;;;22.10;28.20;;;;;;5054578;28;20387;-57
2021/04/10 03:46:01;;;;;;;1.70;0.88;;;22.10;28.20;;;;;;5053733;28;20413;-57
2021/04/10 03:48:30;;;;;;;1.20;0.73;;;22.10;28.20;;;;;;5054426;28;20398;-57
2021/04/10 03:50:57;;;;;;;1.20;0.70;;;22.10;28.20;;;;;;5054193;28;20929;-57
2021/04/10 03:53:23;;;;;;;1.27;0.75;;;22.10;28.20;;;;;;5054283;28;20409;-57
2021/04/10 03:55:48;;;;;;;1.30;0.80;;;22.10;28.20;;;;;;5052884;28;20584;-58
2021/04/10 03:58:14;;;;;;;1.70;0.80;;;22.10;28.20;;;;;;5051790;28;20715;-57
2021/04/10 04:00:40;;;;;;;1.75;0.85;;;22.10;28.20;;;;;;5053431;28;20391;-57
2021/04/10 04:03:06;;;;;;;1.57;0.80;;;22.10;28.30;;;;;;5054083;28;20381;-57
2021/04/10 04:05:31;;;;;;;1.77;0.82;;;22.00;28.20;;;;;;5054118;28;20385;-57
2021/04/10 04:07:57;;;;;;;1.40;0.80;;;22.00;28.20;;;;;;5053676;28;20743;-56
2021/04/10 04:10:23;;;;;;;1.38;0.70;;;22.00;28.20;;;;;;5053735;28;20378;-57
2021/04/10 04:12:49;;;;;;;1.45;0.73;;;22.00;28.20;;;;;;5053660;28;20441;-56
2021/04/10 04:15:15;;;;;;;1.40;0.80;;;22.00;28.20;;;;;;5053181;28;20414;-56
2021/04/10 04:17:40;;;;;;;1.75;0.90;;;22.00;28.20;;;;;;5053770;28;20484;-57
2021/04/10 04:20:06;;;;;;;1.63;0.80;;;22.00;28.20;;;;;;5053174;28;20382;-57
2021/04/10 04:22:32;;;;;;;1.70;0.80;;;22.00;28.20;;;;;;5053739;28;20424;-57
2021/04/10 04:24:58;;;;;;;1.20;0.73;;;22.00;28.20;;;;;;5053491;28;20467;-56
2021/04/10 04:27:24;;;;;;;1.50;0.90;;;22.00;28.20;;;;;;5053501;28;20506;-57
2021/04/10 04:29:51;;;;;;;1.30;0.70;;;22.00;28.20;;;;;;5051947;28;21011;-57
2021/04/10 04:32:17;;;;;;;2.03;0.80;;;22.00;28.20;;;;;;5052780;28;20401;-56
2021/04/10 04:34:43;;;;;;;1.35;0.85;;;22.00;28.20;;;;;;5053404;28;20424;-56
2021/04/10 04:37:08;;;;;;;1.60;0.80;;;22.00;28.20;;;;;;5053554;28;20390;-56
2021/04/10 04:39:34;;;;;;;1.17;0.65;;;22.00;28.20;;;;;;5053544;28;20387;-56
2021/04/10 04:42:00;;;;;;;1.50;0.90;;;22.00;28.20;;;;;;5053138;28;20404;-56
2021/04/10 04:44:28;;;;;;;1.27;0.80;;;22.00;28.20;;;;;;5052396;28;20425;-56
2021/04/10 04:46:54;;;;;;;1.60;0.80;;;21.90;28.20;;;;;;5053012;28;20401;-56
2021/04/10 04:49:19;;;;;;;1.42;0.90;;;21.90;28.20;;;;;;5053254;28;20439;-56
2021/04/10 04:51:45;;;;;;;1.33;0.73;;;22.00;28.20;;;;;;5053167;28;20390;-57
2021/04/10 04:54:11;;;;;;;1.30;0.73;;;22.00;28.20;;;;;;5052217;28;20471;-56
2021/04/10 04:56:36;;;;;;;1.70;0.90;;;22.00;28.20;;;;;;5052897;28;20446;-56
2021/04/10 04:59:02;;;;;;;1.30;0.80;;;21.90;28.20;;;;;;5052752;28;20431;-56
2021/04/10 05:01:28;;;;;;;1.60;0.80;;;22.00;28.20;;;;;;5053011;28;20377;-56
2021/04/10 05:03:53;;;;;;;1.20;0.70;;;21.90;28.10;;;;;;5052933;28;20390;-56
2021/04/10 05:06:19;;;;;;;1.80;0.80;;;21.90;28.10;;;;;;5051242;28;20757;-57
2021/04/10 05:08:45;;;;;;;1.55;0.82;;;21.90;28.10;;;;;;5052887;28;20515;-57
2021/04/10 05:11:10;;;;;;;1.20;0.80;;;21.90;28.10;;;;;;5052866;28;20400;-56
2021/04/10 05:13:36;;;;;;;1.90;0.87;;;21.90;28.10;;;;;;5052706;28;20409;-57
2021/04/10 05:16:01;;;;;;;2.35;1.00;;;22.00;28.20;;;;;;5051217;28;20510;-56
2021/04/10 05:18:27;;;;;;;2.60;1.00;;;22.00;28.00;;;;;;5052398;28;20945;-57
2021/04/10 05:20:53;;;;;;;2.15;0.93;;;22.00;28.00;;;;;;5052520;28;20397;-56
2021/04/10 05:23:23;;;;;;;3.28;0.93;;;21.90;27.60;;;;;;5051263;28;20393;-57
2021/04/10 05:25:50;;;;;;;3.20;1.00;;;21.80;27.90;;;;;;5051097;28;20402;-56
2021/04/10 05:28:16;;;;;;;4.63;0.93;;;21.70;27.90;;;;;;5034077;28;20399;-57
2021/04/10 05:30:42;;;;;;;2.00;0.97;;;21.60;28.10;;;;;;5045905;28;20473;-56
2021/04/10 05:33:08;;;;;;;2.50;0.80;;;21.60;28.40;;;;;;5036551;28;20476;-57
2021/04/10 05:35:35;;;;;;;2.87;0.97;;;21.50;28.30;;;;;;5037112;28;20571;-58
2021/04/10 05:38:01;;;;;;;2.47;1.00;;;21.50;28.30;;;;;;5048963;28;20393;-57
2021/04/10 05:40:27;;;;;;;1.80;0.90;;;21.50;28.40;;;;;;5037106;28;20393;-57
2021/04/10 05:42:53;;;;;;;2.35;0.95;;;21.50;28.50;;;;;;5044113;28;20731;-56
2021/04/10 05:45:18;;;;;;;3.90;0.90;;;21.50;28.50;;;;;;5051044;28;20397;-57
2021/04/10 05:47:44;;;;;;;1.88;0.80;;;21.50;28.50;;;;;;5051830;28;20393;-56
2021/04/10 05:50:11;;;;;;;2.10;0.85;;;21.40;28.60;;;;;;5051608;28;20394;-59
2021/04/10 05:52:37;;;;;;;2.47;0.90;;;21.40;28.80;;;;;;5052020;28;20382;-56
2021/04/10 05:55:04;;;;;;;1.58;0.90;;;21.40;28.60;;;;;;5051761;28;20413;-56
2021/04/10 05:57:30;;;;;;;5.20;1.25;;;21.50;28.70;;;;;;5051915;28;20377;-59
2021/04/10 05:59:55;;;;;;;2.78;1.00;;;21.40;28.80;;;;;;5051523;28;20750;-61
2021/04/10 06:02:21;;;;;;;3.43;0.90;;;21.50;28.90;;;;;;5051508;28;20381;-56
2021/04/10 06:04:47;;;;;;;1.95;0.80;;;21.40;28.80;;;;;;5051718;28;20386;-56
2021/04/10 06:07:13;;;;;;;4.30;0.83;;;21.40;28.90;;;;;;5051771;28;20443;-57
2021/04/10 06:09:38;;;;;;;2.10;0.90;;;21.40;29.20;;;;;;5051826;28;20390;-56
2021/04/10 06:12:04;;;;;;;2.07;0.87;;;21.40;29.20;;;;;;5051449;28;20397;-59
2021/04/10 06:14:30;;;;;;;3.60;1.00;;;21.40;29.10;;;;;;5051291;28;20421;-57
2021/04/10 06:16:56;;;;;;;5.18;1.10;;;21.50;29.20;;;;;;5051428;28;20388;-56
2021/04/10 06:19:22;;;;;;;3.33;1.03;;;21.50;29.50;;;;;;5051486;28;20398;-57
2021/04/10 06:21:48;;;;;;;3.72;1.00;;;21.50;29.40;;;;;;5051470;28;20378;-57
2021/04/10 06:24:14;;;;;;;2.78;0.98;;;21.50;29.50;;;;;;5050995;28;20393;-57
2021/04/10 06:26:44;;;;;;;2.42;1.08;;;21.50;29.60;;;;;;5051654;28;20453;-57
2021/04/10 06:29:10;;;;;;;3.22;1.00;;;21.50;29.70;;;;;;5051434;28;20457;-57
2021/04/10 06:31:36;;;;;;;3.65;0.90;;;21.40;29.60;;;;;;5051444;28;20489;-57
2021/04/10 06:34:01;;;;;;;2.67;1.02;;;21.40;29.80;;;;;;5050996;28;21025;-57
2021/04/10 06:36:27;;;;;;;2.78;0.88;;;21.40;29.80;;;;;;5051093;28;20396;-57
2021/04/10 06:38:54;;;;;;;4.53;1.00;;;21.40;29.80;;;;;;5051325;28;20407;-58
2021/04/10 06:41:21;;;;;;;7.72;1.00;;;21.40;30.20;;;;;;5051382;28;20465;-57
2021/04/10 06:43:46;;;;;;;7.93;0.97;;;21.50;30.10;;;;;;5051274;28;20460;-58
2021/04/10 06:46:12;;;;;;;7.47;1.10;;;21.50;30.50;;;;;;5050662;28;20921;-57
2021/04/10 06:48:39;;;;;;;10.38;1.45;;;21.40;30.70;;;;;;5051252;28;20749;-57
2021/04/10 06:51:06;;;;;;;7.70;1.08;;;21.40;30.60;;;;;;5051103;28;20416;-57
2021/04/10 06:53:38;;;;;;;5.43;1.20;;;21.50;30.70;;;;;;5051087;28;20459;-57
2021/04/10 06:56:06;;;;;;;7.03;1.20;;;21.50;30.70;;;;;;5050824;28;20397;-57
2021/04/10 06:58:54;;;;;;;6.38;1.30;;;21.60;30.70;;;;;;5050699;28;20386;-58
2021/04/10 07:01:20;;;;;;;5.07;1.00;;;21.60;31.40;;;;;;5050534;28;20420;-58
2021/04/10 07:03:49;;;;;;;7.63;1.30;;;21.60;31.60;;;;;;5051024;28;20874;-58
2021/04/10 07:06:15;;;;;;;7.78;1.10;;;21.60;31.60;;;;;;5051078;28;20384;-57
2021/04/10 07:08:41;;;;;;;5.37;1.10;;;21.60;32.80;;;;;;5055031;28;20746;-58
2021/04/10 07:11:08;;;;;;;6.05;1.00;;;21.60;32.30;;;;;;5054918;28;20381;-58
2021/04/10 07:13:33;;;;;;;4.63;1.00;;;21.70;32.30;;;;;;5054904;28;20397;-57
2021/04/10 07:16:02;;;;;;;4.10;0.98;;;21.70;32.90;;;;;;5054830;28;20401;-57
2021/04/10 07:18:29;;;;;;;5.35;1.10;;;21.70;32.90;;;;;;5054612;28;20388;-57
2021/04/10 07:21:18;;;;;;;8.25;1.13;;;21.70;32.70;;;;;;5054777;28;20424;-57
2021/04/10 07:23:55;;;;;;;7.18;1.13;;;21.70;33.40;;;;;;5054712;28;20468;-59
2021/04/10 07:26:50;;;;;;;6.50;1.10;;;21.70;33.30;;;;;;5053819;28;20408;-58
2021/04/10 07:29:33;;;;;;;5.10;1.20;;;21.70;32.80;;;;;;5054540;28;20389;-58
2021/04/10 07:31:59;;;;;;;6.07;1.02;;;21.70;31.70;;;;;;5053094;28;20393;-58
2021/04/10 07:34:26;;;;;;;10.27;1.15;;;21.70;31.60;;;;;;5054019;28;20443;-57
2021/04/10 07:36:59;;;;;;;4.82;1.02;;;21.70;31.10;;;;;;5054371;28;20382;-57
2021/04/10 07:39:25;;;;;;;5.18;0.90;;;21.70;31.20;;;;;;5054675;28;20380;-57
2021/04/10 07:42:04;;;;;;;6.32;1.10;;;21.70;30.80;;;;;;5054273;28;20901;-57
2021/04/10 07:44:40;;;;;;;6.87;1.30;;;21.80;31.20;;;;;;5053975;28;20470;-58
2021/04/10 07:47:09;;;;;;;4.30;1.17;;;21.70;31.00;;;;;;5054272;28;20393;-58
2021/04/10 07:49:36;;;;;;;7.55;1.40;;;21.70;31.40;;;;;;5054188;28;20950;-57
2021/04/10 07:52:07;;;;;;;6.72;1.15;;;21.80;30.90;;;;;;5054236;28;20385;-57
2021/04/10 07:54:38;;;;;;;4.28;0.93;;;21.80;30.40;;;;;;5053763;28;20489;-58
2021/04/10 07:57:08;;;;;;;4.82;1.08;;;21.70;30.40;;;;;;5054143;28;20449;-57
2021/04/10 07:59:56;;;;;;;4.40;1.00;;;21.80;30.40;;;;;;5052599;28;20429;-57
2021/04/10 08:02:23;;;;;;;6.43;1.30;;;21.80;30.40;;;;;;5053699;28;20392;-57
2021/04/10 08:04:58;;;;;;;4.13;1.00;;;21.80;30.40;;;;;;5052662;28;20404;-58
2021/04/10 08:07:25;;;;;;;2.17;0.73;;;21.80;30.20;;;;;;5054055;28;20424;-57
2021/04/10 08:10:05;;;;;;;2.73;1.00;;;21.80;30.10;;;;;;5053843;28;20399;-57
2021/04/10 08:12:33;;;;;;;3.73;0.90;;;21.80;30.00;;;;;;5053708;28;21136;-60
2021/04/10 08:15:00;;;;;;;2.22;1.02;;;21.80;30.00;;;;;;5053565;28;20479;-57
2021/04/10 08:17:43;;;;;;;2.58;1.00;;;21.90;30.00;;;;;;5052939;28;20414;-58
2021/04/10 08:20:19;;;;;;;3.30;1.00;;;21.90;30.00;;;;;;5053094;28;20389;-57
2021/04/10 08:22:45;;;;;;;2.53;0.90;;;22.00;30.00;;;;;;5053475;28;20377;-59
2021/04/10 08:25:12;;;;;;;2.22;0.90;;;22.00;30.00;;;;;;5053746;28;20439;-58
2021/04/10 08:27:40;;;;;;;4.53;1.00;;;22.00;30.00;;;;;;5053603;28;20873;-57
2021/04/10 08:30:09;;;;;;;2.45;0.90;;;21.90;30.00;;;;;;5053146;28;20432;-58
2021/04/10 08:32:35;;;;;;;3.43;1.10;;;21.90;30.00;;;;;;5052975;28;20386;-57
2021/04/10 08:35:01;;;;;;;2.08;1.00;;;21.90;30.00;;;;;;5053311;28;20841;-58
2021/04/10 08:37:28;;;;;;;2.60;0.70;;;22.00;30.00;;;;;;5053241;28;20442;-57
2021/04/10 08:39:57;;;;;;;3.50;1.00;;;22.10;29.90;;;;;;5053206;28;20412;-57
2021/04/10 08:42:24;;;;;;;2.47;0.93;;;22.10;29.80;;;;;;5052804;28;20746;-57
2021/04/10 08:44:51;;;;;;;2.08;0.90;;;22.10;29.70;;;;;;5052980;28;20393;-57
2021/04/10 08:47:19;;;;;;;1.77;0.90;;;22.10;29.70;;;;;;5053373;28;20389;-58
2021/04/10 08:49:48;;;;;;;1.95;0.90;;;22.20;29.70;;;;;;5053376;28;20401;-58
2021/04/10 08:52:20;;;;;;;2.53;0.90;;;22.20;29.60;;;;;;5052862;28;20405;-57
2021/04/10 08:54:48;;;;;;;1.92;1.00;;;22.30;29.60;;;;;;5052179;28;20897;-57
2021/04/10 08:57:14;;;;;;;1.80;0.70;;;22.30;29.50;;;;;;5052531;28;20390;-57
2021/04/10 08:59:49;;;;;;;1.42;0.80;;;22.30;29.90;;;;;;5052726;28;20476;-58
2021/04/10 09:02:22;;;;;;;2.05;0.60;;;22.40;29.50;;;;;;5051314;28;20405;-57
2021/04/10 09:05:08;;;;;;;2.75;0.90;;;22.50;29.50;;;;;;5052613;28;20400;-57
2021/04/10 09:07:43;;;;;;;5.15;1.20;;;22.50;29.40;;;;;;5052831;28;20393;-57
2021/04/10 09:10:10;;;;;;;5.82;1.30;;;22.60;29.30;;;;;;5052453;28;20877;-57
2021/04/10 09:12:37;;;;;;;5.80;1.40;;;22.60;28.80;;;;;;5051693;28;20385;-58
2021/04/10 09:15:07;;;;;;;4.60;1.45;;;22.70;28.30;;;;;;5051204;28;20504;-57
2021/04/10 09:17:55;;;;;;;3.72;1.50;;;22.90;28.00;;;;;;5051462;28;20879;-57
2021/04/10 09:20:46;;;;;;;4.60;1.30;;;23.00;27.90;;;;;;5050812;28;20393;-58
2021/04/10 09:23:17;;;;;;;2.97;1.50;;;23.00;27.90;;;;;;5051384;28;20393;-57
2021/04/10 09:25:45;;;;;;;3.30;1.52;;;23.00;27.90;;;;;;5051209;28;20421;-58
2021/04/10 09:28:11;;;;;;;4.93;1.40;;;23.00;27.80;;;;;;5050657;28;20874;-57
2021/04/10 09:30:38;;;;;;;6.80;1.47;;;22.90;28.20;;;;;;5050363;28;20393;-57
2021/04/10 09:33:29;;;;;;;5.47;1.80;;;22.90;28.30;;;;;;5050767;28;20389;-58
2021/04/10 09:35:55;;;;;;;5.47;1.50;;;23.00;28.20;;;;;;5050500;28;20397;-58
2021/04/10 09:38:40;;;;;;;3.42;1.15;;;23.10;28.30;;;;;;5050263;28;20424;-57
2021/04/10 09:41:06;;;;;;;5.57;1.40;;;23.10;28.40;;;;;;5050603;28;20412;-58
2021/04/10 09:43:32;;;;;;;3.40;1.13;;;23.10;28.20;;;;;;5050882;28;20870;-58
2021/04/10 09:45:58;;;;;;;3.78;1.27;;;23.20;28.20;;;;;;5049960;28;20485;-57
2021/04/10 09:48:27;;;;;;;3.57;1.20;;;23.20;28.60;;;;;;5049665;28;20403;-57
2021/04/10 09:50:53;;;;;;;3.63;1.30;;;23.20;28.50;;;;;;5050271;28;20404;-58
2021/04/10 09:53:20;;;;;;;2.45;1.02;;;23.20;28.50;;;;;;5050312;28;20397;-57
2021/04/10 09:55:47;;;;;;;3.42;1.00;;;23.30;28.40;;;;;;5050515;28;20389;-58
2021/04/10 09:58:14;;;;;;;2.95;1.13;;;23.30;28.70;;;;;;5049819;28;20390;-58
2021/04/10 10:00:45;;;;;;;3.88;1.30;;;23.40;28.70;;;;;;5032377;28;20405;-58
2021/04/10 10:03:15;;;;;;;2.72;1.10;;;23.40;28.60;;;;;;5029242;28;20395;-57
2021/04/10 10:05:44;;;;;;;2.70;1.00;;;23.40;28.70;;;;;;5030405;28;20871;-58
2021/04/10 10:08:13;;;;;;;1.67;1.00;;;23.50;28.70;;;;;;5031790;28;20749;-57
2021/04/10 10:10:47;;;;;;;3.05;1.10;;;23.50;28.60;;;;;;5030467;28;20480;-58
2021/04/10 10:13:21;;;;;;;1.92;0.90;;;23.60;28.70;;;;;;5030465;28;20419;-58
2021/04/10 10:15:48;;;;;;;1.67;1.00;;;23.60;28.50;;;;;;5030130;28;20399;-57
2021/04/10 10:18:25;;;;;;;2.10;0.95;;;23.70;28.60;;;;;;5028536;28;20498;-59
2021/04/10 10:20:55;;;;;;;2.22;1.13;;;23.70;28.50;;;;;;5030282;28;20802;-58
2021/04/10 10:23:25;;;;;;;2.10;0.90;;;23.80;28.50;;;;;;5030025;28;20410;-58
2021/04/10 10:25:52;;;;;;;2.30;0.90;;;23.80;28.50;;;;;;5029961;28;20396;-58
2021/04/10 10:28:18;;;;;;;2.10;1.13;;;23.90;28.70;;;;;;5029734;28;20423;-57
2021/04/10 10:30:45;;;;;;;2.65;1.08;;;23.90;28.70;;;;;;5040227;28;20910;-57
2021/04/10 10:33:11;;;;;;;3.60;1.00;;;23.90;28.40;;;;;;5030455;28;20398;-57
2021/04/10 10:35:37;;;;;;;3.13;1.05;;;24.00;28.50;;;;;;5029877;28;20465;-58
2021/04/10 10:38:07;;;;;;;3.10;1.00;;;24.00;28.60;;;;;;5029998;28;20434;-58
2021/04/10 10:40:34;;;;;;;3.38;1.10;;;24.10;28.40;;;;;;5045945;28;20397;-58
2021/04/10 10:43:04;;;;;;;4.20;1.40;;;24.10;28.30;;;;;;5049665;28;20401;-58
2021/04/10 10:45:47;;;;;;;4.50;1.17;;;24.10;28.30;;;;;;5049724;28;20484;-57
2021/04/10 10:48:19;;;;;;;4.00;1.08;;;24.20;28.20;;;;;;5049913;28;20409;-57
2021/04/10 10:50:45;;;;;;;5.00;1.00;;;24.20;28.10;;;;;;5049910;28;20753;-67
2021/04/10 10:53:23;;;;;;;4.00;1.10;;;24.20;28.30;;;;;;5049842;28;20396;-59
2021/04/10 10:56:02;;;;;;;4.95;1.10;;;24.30;28.30;;;;;;5049910;28;20404;-65
2021/04/10 10:58:38;;;;;;;4.53;1.00;;;24.30;28.40;;;;;;5049380;28;20885;-58
2021/04/10 11:01:11;;;;;;;7.20;1.17;;;24.30;28.30;;;;;;5049245;28;20401;-58
2021/04/10 11:03:42;;;;;;;6.35;1.20;;;24.30;28.40;;;;;;5049034;28;20381;-57
2021/04/10 11:06:08;;;;;;;4.38;1.10;;;24.40;28.40;;;;;;5049700;28;20378;-58
2021/04/10 11:08:34;;;;;;;2.30;0.88;;;24.40;28.60;;;;;;5049401;28;20703;-57
2021/04/10 11:11:00;;;;;;;6.15;1.10;;;24.50;28.60;;;;;;5049713;28;20393;-57
2021/04/10 11:13:27;;;;;;;4.30;1.10;;;24.50;28.60;;;;;;5048174;28;20757;-57
2021/04/10 11:15:52;;;;;;;3.70;0.90;;;24.60;28.50;;;;;;5049557;28;20877;-57
2021/04/10 11:18:29;;;;;;;3.63;1.07;;;24.60;28.60;;;;;;5049412;28;20397;-58
2021/04/10 11:21:22;;;;;;;2.63;0.95;;;24.70;28.60;;;;;;5049541;28;20401;-58
2021/04/10 11:23:57;;;;;;;3.10;0.90;;;24.70;28.40;;;;;;5049334;28;20884;-58
2021/04/10 11:26:42;;;;;;;5.88;1.10;;;24.70;28.50;;;;;;5048186;28;20805;-63
2021/04/10 11:29:19;;;;;;;3.60;1.08;;;24.70;28.50;;;;;;5048590;28;20393;-64
2021/04/10 11:32:19;;;;;;;3.40;0.90;;;24.80;28.20;;;;;;5049390;28;20390;-63
2021/04/10 11:34:48;;;;;;;4.82;1.10;;;24.80;28.10;;;;;;5049223;28;20916;-65
2021/04/10 11:37:16;;;;;;;5.77;1.20;;;24.90;28.20;;;;;;5049471;28;20885;-59
2021/04/10 11:39:55;;;;;;;6.23;1.30;;;24.90;28.10;;;;;;5046524;28;20489;-58
2021/04/10 11:42:21;;;;;;;4.45;1.17;;;25.00;28.00;;;;;;5035878;28;20391;-58
2021/04/10 11:44:47;;;;;;;5.00;1.10;;;25.00;28.10;;;;;;5036731;28;20391;-58
2021/04/10 11:47:19;;;;;;;6.65;1.23;;;25.00;27.90;;;;;;5039100;28;20401;-58
2021/04/10 11:49:45;;;;;;;4.30;1.35;;;25.10;27.80;;;;;;5035837;28;20399;-58
2021/04/10 11:52:11;;;;;;;5.85;1.10;;;25.10;27.80;;;;;;5030038;28;20721;-61
2021/04/10 11:54:37;;;;;;;4.13;1.25;;;25.20;27.90;;;;;;5033776;28;20949;-59
2021/04/10 11:57:04;;;;;;;3.40;0.93;;;25.20;27.90;;;;;;5034209;28;21061;-62
2021/04/10 11:59:34;;;;;;;3.88;1.13;;;25.30;27.90;;;;;;5034346;28;20434;-58
2021/04/10 12:02:02;;;;;;;4.50;1.20;;;25.30;27.90;;;;;;5033881;28;20398;-58
2021/04/10 12:04:30;;;;;;;2.35;0.95;;;25.30;27.80;;;;;;5033791;28;20414;-59
2021/04/10 12:07:06;;;;;;;3.97;1.08;;;25.40;27.90;;;;;;5034063;28;20399;-58
2021/04/10 12:09:36;;;;;;;4.07;1.17;;;25.50;27.90;;;;;;5034033;28;20388;-58
2021/04/10 12:12:02;;;;;;;4.05;1.17;;;25.50;27.90;;;;;;5033875;28;20392;-58
2021/04/10 12:14:28;;;;;;;4.15;1.13;;;25.60;28.00;;;;;;5033429;28;20736;-58
2021/04/10 12:16:54;;;;;;;4.20;1.20;;;25.60;27.80;;;;;;5033815;28;20437;-58
2021/04/10 12:19:21;;;;;;;3.67;1.30;;;25.60;28.00;;;;;;5034020;28;20498;-58
2021/04/10 12:21:47;;;;;;;3.50;1.40;;;25.60;27.90;;;;;;5033787;28;20391;-58
2021/04/10 12:24:13;;;;;;;2.90;1.50;;;25.60;27.90;;;;;;5032568;28;20498;-58
2021/04/10 12:26:39;;;;;;;3.95;1.40;;;25.60;27.90;;;;;;5033361;28;20440;-59
2021/04/10 12:29:05;;;;;;;3.53;1.40;;;25.70;28.00;;;;;;5033789;28;20761;-58
2021/04/10 12:31:31;;;;;;;3.37;1.33;;;25.70;27.80;;;;;;5032017;28;20988;-59
2021/04/10 12:33:57;;;;;;;4.70;1.50;;;25.60;27.70;;;;;;5033078;28;20462;-59
2021/04/10 12:36:22;;;;;;;4.03;1.45;;;25.60;27.70;;;;;;5032972;28;20902;-58
2021/04/10 12:38:48;;;;;;;4.57;1.60;;;25.60;27.60;;;;;;5033277;28;20398;-60
2021/04/10 12:41:15;;;;;;;3.85;1.33;;;25.60;27.70;;;;;;5033549;28;20406;-58
2021/04/10 12:43:41;;;;;;;3.58;1.40;;;25.60;27.90;;;;;;5033366;28;20388;-60
2021/04/10 12:46:07;;;;;;;3.23;1.40;;;25.60;27.80;;;;;;5031839;28;20415;-58
2021/04/10 12:48:33;;;;;;;3.70;1.40;;;25.60;27.70;;;;;;5033010;28;20441;-60
2021/04/10 12:50:58;;;;;;;3.63;1.40;;;25.60;27.60;;;;;;5033250;28;20402;-64
2021/04/10 12:53:24;;;;;;;3.73;1.40;;;25.60;27.70;;;;;;5033206;28;20387;-68
2021/04/10 12:55:50;;;;;;;3.07;1.30;;;25.60;27.70;;;;;;5033207;28;20748;-60